Time;durP1;ratioP1;P1;durP2;ratioP2;P2;SDS_P1;SDS_P2;PMS_P1;PMS_P2;Temp;Humidity;BMP_temperature;BMP_pressure;BME280_temperature;BME280_humidity;BME280_pressure;Samples;Min_cycle;Max_cycle;Signal;HPM_P1;HPM_P2
2022/02/22 00:01:57;;;;;;;6.43;1.67;;;;;;;3.37;100.00;98947.15;4987091;57;1135075;-75
2022/02/22 00:07:05;;;;;;;1.42;1.27;;;;;;;3.39;100.00;98965.33;4878341;57;1134656;-73
2022/02/22 00:12:11;;;;;;;6.90;2.27;;;;;;;3.39;100.00;98968.78;4872910;58;1134726;-74
2022/02/22 00:17:17;;;;;;;3.73;0.80;;;;;;;3.42;100.00;98982.94;4876526;58;1134922;-72
2022/02/22 00:22:22;;;;;;;1.47;1.07;;;;;;;3.43;100.00;98985.08;4936625;57;1175629;-73
2022/02/22 00:27:28;;;;;;;4.45;1.60;;;;;;;3.43;100.00;98985.08;4876693;58;1134810;-72
2022/02/22 00:32:33;;;;;;;3.33;1.50;;;;;;;3.49;100.00;98999.85;4932786;58;1134766;-75
2022/02/22 00:37:41;;;;;;;4.63;1.20;;;;;;;3.51;100.00;98996.63;4876989;58;1134679;-74
2022/02/22 00:42:46;;;;;;;2.70;0.90;;;;;;;3.52;100.00;98997.46;4918374;57;1134599;-75
2022/02/22 00:47:52;;;;;;;5.20;1.47;;;;;;;3.53;100.00;98999.97;4877175;58;1134817;-73
2022/02/22 00:52:58;;;;;;;6.67;1.47;;;;;;;3.55;100.00;99012.92;4937558;57;1134878;-75
2022/02/22 00:58:06;;;;;;;4.03;1.47;;;;;;;3.56;100.00;99008.53;4876912;58;1134814;-73
2022/02/22 01:03:12;;;;;;;3.93;1.90;;;;;;;3.58;100.00;99028.87;4957094;57;1135210;-72
2022/02/22 01:08:18;;;;;;;6.13;1.30;;;;;;;3.56;100.00;99037.29;4955502;58;1134948;-73
2022/02/22 01:13:24;;;;;;;7.17;1.57;;;;;;;3.57;100.00;99038.95;5007958;57;1134599;-73
2022/02/22 01:18:30;;;;;;;15.33;2.73;;;;;;;3.55;100.00;99045.60;5036874;57;1134666;-73
2022/02/22 01:23:36;;;;;;;3.07;1.43;;;;;;;3.56;100.00;99039.91;5036789;57;1136971;-75
2022/02/22 01:28:43;;;;;;;2.47;1.30;;;;;;;3.56;100.00;99039.91;5006582;57;1135103;-74
2022/02/22 01:33:53;;;;;;;8.43;2.43;;;;;;;3.58;100.00;99052.39;5042642;56;1134704;-74
2022/02/22 01:38:56;;;;;;;3.57;1.33;;;;;;;3.56;100.00;99062.13;5047791;57;1134646;-74
2022/02/22 01:44:03;;;;;;;8.05;3.35;;;;;;;3.54;100.00;99077.91;5058219;57;1134897;-75
2022/02/22 01:49:09;;;;;;;3.22;1.80;;;;;;;3.52;100.00;99087.64;5037688;57;1134816;-75
2022/02/22 01:54:15;;;;;;;7.55;1.50;;;;;;;3.51;100.00;99095.95;5048367;57;1134827;-73
2022/02/22 01:59:23;;;;;;;3.13;1.30;;;;;;;3.52;100.00;99110.69;5048510;57;1135806;-75
2022/02/22 02:04:30;;;;;;;4.47;2.20;;;;;;;3.52;100.00;99119.84;4990496;57;1135019;-75
2022/02/22 02:09:36;;;;;;;8.53;1.43;;;;;;;3.52;100.00;99128.15;4942850;58;1134641;-76
2022/02/22 02:14:42;;;;;;;2.10;1.30;;;;;;;3.54;100.00;99140.64;4947128;58;1134787;-73
2022/02/22 02:19:48;;;;;;;0.90;0.83;;;;;;;3.55;100.00;99154.08;4949371;58;1134856;-75
2022/02/22 02:24:53;;;;;;;1.85;1.47;;;;;;;3.55;100.00;99154.08;4943902;58;1134701;-73
2022/02/22 02:30:02;;;;;;;4.00;1.87;;;;;;;3.57;100.00;99163.95;4947971;58;1135234;-73
2022/02/22 02:35:09;;;;;;;9.70;1.80;;;;;;;3.58;100.00;99173.94;4948674;57;1134665;-75
2022/02/22 02:40:14;;;;;;;12.77;1.60;;;;;;;3.59;100.00;99167.30;5029013;57;1134816;-75
2022/02/22 02:45:20;;;;;;;4.43;1.77;;;;;;;3.58;100.00;99174.78;5028810;57;1136706;-75
2022/02/22 02:50:26;;;;;;;5.13;1.40;;;;;;;3.59;100.00;99181.69;5036454;57;1134789;-73
2022/02/22 02:55:32;;;;;;;14.93;3.10;;;;;;;3.60;100.00;99184.66;5022200;57;1134795;-74
2022/02/22 03:00:38;;;;;;;7.73;1.73;;;;;;;3.60;100.00;99199.04;5016979;57;1136892;-76
2022/02/22 03:05:44;;;;;;;13.47;2.03;;;;;;;3.60;100.00;99200.34;5010690;56;1134836;-73
2022/02/22 03:10:51;;;;;;;5.45;1.80;;;;;;;3.62;100.00;99207.61;5009550;57;1136921;-75
2022/02/22 03:15:57;;;;;;;5.93;1.43;;;;;;;3.65;100.00;99219.64;5009440;56;1134683;-74
2022/02/22 03:21:02;;;;;;;4.33;1.90;;;;;;;3.65;100.00;99227.02;5009562;57;1134700;-75
2022/02/22 03:26:08;;;;;;;4.83;1.73;;;;;;;3.62;100.00;99241.60;5009012;57;1134825;-74
2022/02/22 03:31:14;;;;;;;8.43;2.60;;;;;;;3.60;100.00;99233.03;5009448;57;1135068;-75
2022/02/22 03:36:21;;;;;;;4.03;0.93;;;;;;;3.62;100.00;99257.29;5009503;57;1134827;-73
2022/02/22 03:41:27;;;;;;;2.60;1.50;;;;;;;3.63;100.00;99263.36;5009447;57;1135009;-75
2022/02/22 03:46:33;;;;;;;5.30;1.53;;;;;;;3.63;100.00;99277.27;5008989;57;1134785;-73
2022/02/22 03:51:40;;;;;;;4.93;2.10;;;;;;;3.69;100.00;99287.75;5011127;57;1134716;-73
2022/02/22 03:56:45;;;;;;;5.27;1.30;;;;;;;3.73;100.00;99307.05;4889571;58;1134730;-73
2022/02/22 04:01:53;;;;;;;3.83;1.70;;;;;;;3.77;100.00;99312.45;5040794;57;1135027;-72
2022/02/22 04:06:59;;;;;;;12.63;3.35;;;;;;;3.78;100.00;99328.50;5038112;57;1134944;-76
2022/02/22 04:12:06;;;;;;;4.37;1.40;;;;;;;3.81;100.00;99331.38;4964483;58;1136983;-74
2022/02/22 04:17:11;;;;;;;18.17;2.80;;;;;;;3.80;100.00;99352.78;4964353;58;1135017;-75
2022/02/22 04:22:19;;;;;;;19.53;4.37;;;;;;;3.80;100.00;99359.31;4964448;58;1137097;-73
2022/02/22 04:27:25;;;;;;;16.57;2.20;;;;;;;3.79;100.00;99370.71;4964153;58;1137243;-73
2022/02/22 04:32:31;;;;;;;11.90;2.50;;;;;;;3.79;100.00;99378.56;4964048;57;1137028;-76
2022/02/22 04:37:38;;;;;;;12.63;2.33;;;;;;;3.78;100.00;99401.73;4964575;57;1136789;-75
2022/02/22 04:42:48;;;;;;;2.73;0.87;;;;;;;3.75;100.00;99402.39;4964060;57;1137258;-75
2022/02/22 04:47:55;;;;;;;4.93;1.23;;;;;;;3.61;100.00;99410.33;4940912;58;1253407;-74
2022/02/22 04:53:00;;;;;;;5.50;1.27;;;;;;;3.48;100.00;99435.14;5073870;56;1134771;-74
2022/02/22 04:58:05;;;;;;;12.15;1.60;;;;;;;3.41;100.00;99429.94;5043618;56;1134924;-75
2022/02/22 05:03:11;;;;;;;18.17;3.00;;;;;;;3.36;100.00;99428.11;5047793;57;1136943;-75
2022/02/22 05:08:18;;;;;;;8.80;2.63;;;;;;;3.32;100.00;99444.45;5054216;56;1136733;-74
2022/02/22 05:13:24;;;;;;;12.67;3.43;;;;;;;3.32;100.00;99445.76;5054595;56;1134621;-73
2022/02/22 05:18:31;;;;;;;15.33;2.77;;;;;;;3.32;100.00;99460.59;5054574;56;1136823;-73
2022/02/22 05:23:37;;;;;;;11.53;2.55;;;;;;;3.34;100.00;99454.34;5055243;56;1136757;-73
2022/02/22 05:28:49;;;;;;;9.53;2.53;;;;;;;3.38;100.00;99473.25;5055610;56;1136709;-75
2022/02/22 05:33:52;;;;;;;6.00;1.80;;;;;;;3.37;100.00;99476.80;5062185;56;1134765;-74
2022/02/22 05:38:58;;;;;;;9.95;2.70;;;;;;;3.39;100.00;99484.91;5090309;54;1134690;-75
2022/02/22 05:44:04;;;;;;;5.87;2.00;;;;;;;3.45;100.00;99501.98;5065276;56;1134547;-73
2022/02/22 05:49:10;;;;;;;34.48;13.88;;;;;;;3.48;100.00;99503.94;5065445;56;1134761;-75
2022/02/22 05:54:15;;;;;;;7.33;1.27;;;;;;;3.52;100.00;99510.63;5064083;56;1187105;-74
2022/02/22 05:59:21;;;;;;;19.23;5.47;;;;;;;3.55;100.00;99526.59;5111680;55;1134633;-73
2022/02/22 06:04:27;;;;;;;9.50;1.97;;;;;;;3.59;100.00;99538.53;5085339;56;1136637;-73
2022/02/22 06:09:34;;;;;;;6.20;2.33;;;;;;;3.60;100.00;99540.20;5057239;56;1134679;-74
2022/02/22 06:14:39;;;;;;;5.43;1.77;;;;;;;3.63;100.00;99550.95;5057570;56;1134890;-74
2022/02/22 06:19:45;;;;;;;7.67;1.35;;;;;;;3.66;100.00;99559.91;5057215;57;1134723;-73
2022/02/22 06:24:51;;;;;;;11.07;2.07;;;;;;;3.69;100.00;99565.75;5050231;57;1145128;-73
2022/02/22 06:29:56;;;;;;;7.53;2.45;;;;;;;3.72;100.00;99573.41;5046641;56;1136780;-75
2022/02/22 06:35:03;;;;;;;5.37;1.22;;;;;;;3.79;100.00;99576.47;5048665;57;1134767;-75
2022/02/22 06:40:09;;;;;;;2.80;1.40;;;;;;;3.86;100.00;99589.50;5035788;56;1135031;-76
2022/02/22 06:45:14;;;;;;;7.03;1.90;;;;;;;3.85;100.00;99599.59;5044698;56;1134701;-76
